Time;durP1;ratioP1;P1;durP2;ratioP2;P2;SDS_P1;SDS_P2;PMS_P1;PMS_P2;Temp;Humidity;BMP_temperature;BMP_pressure;BME280_temperature;BME280_humidity;BME280_pressure;Samples;Min_cycle;Max_cycle;Signal;HPM_P1;HPM_P2
2021/06/03 00:00:19;;;;;;;7.60;4.42;;;;;;;10.31;64.25;101601.89;1687086;83;27638;-73
2021/06/03 00:02:49;;;;;;;6.25;4.55;;;;;;;10.32;64.39;101601.72;1668686;85;25911;-73
2021/06/03 00:05:21;;;;;;;8.13;4.53;;;;;;;10.35;64.48;101609.94;1706518;82;25895;-73
2021/06/03 00:07:48;;;;;;;6.60;5.08;;;;;;;10.37;64.51;101603.39;1693333;80;25863;-73
2021/06/03 00:10:17;;;;;;;10.50;4.80;;;;;;;10.39;64.51;101608.09;1738868;80;25887;-73
2021/06/03 00:12:44;;;;;;;11.50;4.87;;;;;;;10.43;64.60;101605.95;1706697;80;26694;-74
2021/06/03 00:15:15;;;;;;;9.35;5.33;;;;;;;10.40;64.50;101604.92;1746082;80;25781;-73
2021/06/03 00:17:42;;;;;;;;;;;;;;;10.42;64.56;101605.59;1770504;80;26495;-74
2021/06/03 00:20:14;;;;;;;7.87;4.95;;;;;;;10.43;64.75;101604.61;1740118;80;25813;-73
2021/06/03 00:22:42;;;;;;;7.15;4.83;;;;;;;10.43;64.81;101605.95;1774244;80;25776;-73
2021/06/03 00:25:10;;;;;;;6.28;4.70;;;;;;;10.41;64.80;101608.80;1769123;80;28204;-74
2021/06/03 00:27:38;;;;;;;7.78;5.35;;;;;;;10.41;64.93;101603.44;1729055;80;25882;-74
2021/06/03 00:30:07;;;;;;;11.05;5.70;;;;;;;10.40;64.61;101614.30;1738853;80;25926;-73
2021/06/03 00:32:35;;;;;;;9.45;6.05;;;;;;;10.43;64.85;101607.29;1746314;80;26135;-73
2021/06/03 00:35:04;;;;;;;9.28;5.83;;;;;;;10.46;65.04;101608.28;1774781;80;25822;-74
2021/06/03 00:37:30;;;;;;;13.32;6.30;;;;;;;10.46;64.95;101608.28;1750065;80;27518;-73
2021/06/03 00:39:58;;;;;;;8.83;5.90;;;;;;;10.45;64.87;101604.80;1650054;83;26022;-74
2021/06/03 00:42:26;;;;;;;7.83;6.03;;;;;;;10.45;64.82;101606.63;1768403;80;26504;-73
2021/06/03 00:44:53;;;;;;;11.65;6.33;;;;;;;10.42;64.94;101606.44;1772900;80;25764;-73
2021/06/03 00:47:20;;;;;;;12.28;6.62;;;;;;;10.42;64.92;101603.77;1729867;80;25855;-73
2021/06/03 00:49:47;;;;;;;8.78;6.62;;;;;;;10.40;64.91;101604.42;1714692;80;27339;-73
2021/06/03 00:52:14;;;;;;;14.43;6.17;;;;;;;10.38;65.01;101605.58;1772679;80;26467;-73
2021/06/03 00:54:41;;;;;;;6.62;5.95;;;;;;;10.34;65.08;101607.75;1771764;80;25773;-73
2021/06/03 00:57:08;;;;;;;7.72;6.03;;;;;;;10.31;65.08;101606.72;1741019;80;25908;-73
2021/06/03 00:59:35;;;;;;;7.62;6.03;;;;;;;10.25;65.04;101599.34;1685557;80;25854;-73
2021/06/03 01:02:03;;;;;;;13.95;7.45;;;;;;;10.18;65.07;101599.63;1726681;80;27464;-73
2021/06/03 01:04:32;;;;;;;9.05;6.15;;;;;;;10.13;65.04;101595.77;1749210;80;25811;-74
2021/06/03 01:06:59;;;;;;;9.53;6.15;;;;;;;10.07;65.10;101603.91;1738088;80;25798;-73
2021/06/03 01:09:35;;;;;;;9.38;6.42;;;;;;;10.03;65.07;101603.86;1703580;80;25807;-73
2021/06/03 01:12:22;;;;;;;10.82;6.28;;;;;;;10.02;65.33;101603.05;1765279;80;26547;-74
2021/06/03 01:14:53;;;;;;;11.65;6.90;;;;;;;10.05;65.46;101601.89;1766898;80;28120;-73
2021/06/03 01:17:22;;;;;;;8.05;6.35;;;;;;;10.03;65.33;101602.03;1734635;80;26289;-74
2021/06/03 01:19:51;;;;;;;11.25;7.37;;;;;;;10.02;65.41;101611.56;1740401;80;26497;-73
2021/06/03 01:22:54;;;;;;;15.55;6.80;;;;;;;10.00;65.50;101608.21;1751634;80;25739;-72
2021/06/03 01:25:24;;;;;;;9.75;6.67;;;;;;;9.98;65.61;101616.41;1767904;80;25806;-73
2021/06/03 01:27:54;;;;;;;11.60;6.65;;;;;;;9.94;65.70;101615.54;1743414;80;28138;-72
2021/06/03 01:30:26;;;;;;;10.63;6.67;;;;;;;9.91;65.88;101616.69;1767490;80;25688;-74
2021/06/03 01:33:00;;;;;;;6.92;6.17;;;;;;;9.85;65.93;101616.48;1761789;80;25781;-73
2021/06/03 01:35:32;;;;;;;12.40;7.28;;;;;;;9.82;65.99;101622.13;1707720;80;26014;-73
2021/06/03 01:38:04;;;;;;;17.45;7.55;;;;;;;9.77;65.98;101617.25;1767494;80;25818;-73
2021/06/03 01:40:34;;;;;;;9.75;6.75;;;;;;;9.75;65.96;101618.42;1766738;80;28124;-73
2021/06/03 01:43:05;;;;;;;9.40;7.23;;;;;;;9.71;65.97;101619.22;1722282;80;25813;-73
2021/06/03 01:45:32;;;;;;;10.70;6.95;;;;;;;9.66;66.08;101631.39;1736720;80;25992;-74
2021/06/03 01:48:00;;;;;;;10.03;6.87;;;;;;;9.63;66.25;101627.19;1758571;80;25792;-73
2021/06/03 01:50:29;;;;;;;9.80;6.43;;;;;;;9.61;66.21;101621.16;1732495;80;25953;-73
2021/06/03 01:52:58;;;;;;;10.18;7.37;;;;;;;9.60;66.23;101630.16;1740262;80;28163;-73
2021/06/03 01:55:28;;;;;;;12.13;7.75;;;;;;;9.60;66.13;101629.34;1706062;80;25840;-73
2021/06/03 01:57:57;;;;;;;8.68;6.72;;;;;;;9.61;66.33;101625.17;1764608;80;25910;-73
2021/06/03 02:00:27;;;;;;;12.25;7.12;;;;;;;9.61;66.37;101627.84;1758982;80;25970;-75
2021/06/03 02:02:55;;;;;;;9.75;6.70;;;;;;;9.56;66.50;101624.78;1707844;80;26496;-74
2021/06/03 02:05:24;;;;;;;9.45;6.30;;;;;;;9.52;66.58;101632.78;1711112;80;27485;-74
2021/06/03 02:07:51;;;;;;;8.53;6.00;;;;;;;9.44;66.63;101627.38;1771825;80;25820;-73
2021/06/03 02:10:21;;;;;;;8.48;5.83;;;;;;;9.39;66.76;101625.64;1742725;80;26495;-73
2021/06/03 02:13:15;;;;;;;12.10;6.10;;;;;;;9.35;66.80;101620.27;1732314;81;26007;-74
2021/06/03 02:15:55;;;;;;;7.97;6.00;;;;;;;9.33;66.76;101627.11;1699089;80;25796;-74
2021/06/03 02:18:30;;;;;;;9.88;6.45;;;;;;;9.32;66.98;101632.10;1772484;80;28222;-74
2021/06/03 02:20:59;;;;;;;11.65;7.08;;;;;;;9.30;67.19;101623.92;1761947;80;26533;-74
2021/06/03 02:23:28;;;;;;;9.25;6.33;;;;;;;9.26;67.34;101629.20;1740667;80;26647;-73
2021/06/03 02:26:02;;;;;;;8.25;6.10;;;;;;;9.25;67.32;101628.88;1777391;79;25963;-74
2021/06/03 02:28:32;;;;;;;9.35;6.97;;;;;;;9.24;67.42;101631.19;1767388;80;25842;-72
2021/06/03 02:31:01;;;;;;;12.07;7.72;;;;;;;9.23;67.41;101630.37;1771261;80;28131;-74
2021/06/03 02:33:31;;;;;;;8.50;6.42;;;;;;;9.26;67.61;101627.86;1728579;80;26406;-73
2021/06/03 02:36:00;;;;;;;7.60;6.80;;;;;;;9.23;67.59;101627.70;1716833;80;26409;-74
2021/06/03 02:38:32;;;;;;;11.25;5.85;;;;;;;9.22;67.75;101623.33;1771689;80;25818;-73
2021/06/03 02:41:06;;;;;;;7.80;6.60;;;;;;;9.19;67.75;101620.98;1736058;82;25796;-74
2021/06/03 02:43:35;;;;;;;8.68;6.42;;;;;;;9.15;67.79;101623.59;1670774;82;28193;-73
2021/06/03 02:46:05;;;;;;;;;;;;;;;9.15;67.81;101624.92;1651961;83;25713;-74
2021/06/03 02:48:32;;;;;;;8.48;6.10;;;;;;;9.10;67.97;101619.22;1702006;83;26257;-74
2021/06/03 02:50:59;;;;;;;7.35;6.50;;;;;;;9.07;68.05;101618.17;1717355;80;26211;-73
2021/06/03 02:53:27;;;;;;;11.88;6.50;;;;;;;9.04;68.03;101620.31;1721693;80;25775;-73
2021/06/03 02:55:57;;;;;;;12.73;7.35;;;;;;;9.00;68.17;101621.09;1736532;80;28150;-73
2021/06/03 02:58:25;;;;;;;7.72;6.50;;;;;;;9.01;68.35;101621.46;1770249;80;25786;-73
2021/06/03 03:00:53;;;;;;;9.50;7.35;;;;;;;9.02;68.64;101619.14;1753810;80;26531;-73
2021/06/03 03:03:20;;;;;;;8.70;7.28;;;;;;;9.05;68.91;101625.50;1741365;80;25807;-73
2021/06/03 03:05:48;;;;;;;12.93;7.05;;;;;;;9.06;68.90;101625.02;1770288;80;25839;-73
2021/06/03 03:08:17;;;;;;;9.20;7.42;;;;;;;9.07;69.02;101624.86;1742508;80;28257;-73
2021/06/03 03:10:55;;;;;;;10.55;7.22;;;;;;;9.08;69.39;101627.89;1733545;80;25886;-72
2021/06/03 03:13:24;;;;;;;10.32;7.08;;;;;;;9.12;69.43;101636.43;1746035;80;25774;-74
2021/06/03 03:15:52;;;;;;;9.93;7.58;;;;;;;9.15;69.96;101638.29;1736593;80;26704;-73
2021/06/03 03:18:20;;;;;;;10.25;7.80;;;;;;;9.19;69.96;101642.86;1774699;80;25865;-73
2021/06/03 03:20:47;;;;;;;9.38;7.50;;;;;;;9.26;70.13;101641.23;1767183;80;27567;-73
2021/06/03 03:23:16;;;;;;;10.38;7.78;;;;;;;9.33;70.53;101646.31;1735094;80;25917;-73
2021/06/03 03:25:45;;;;;;;12.33;7.35;;;;;;;9.41;70.69;101648.25;1756623;78;26589;-73
2021/06/03 03:28:13;;;;;;;11.22;8.65;;;;;;;9.47;70.93;101652.97;1772590;78;26074;-74
2021/06/03 03:30:42;;;;;;;13.95;9.70;;;;;;;9.53;71.05;101647.00;1745489;80;25979;-74
2021/06/03 03:33:14;;;;;;;15.30;10.50;;;;;;;9.60;71.29;101646.73;1742835;80;28321;-73
2021/06/03 03:35:46;;;;;;;;;;;;;;;9.67;71.25;101644.61;1740384;80;25815;-73
2021/06/03 03:38:16;;;;;;;16.80;9.45;;;;;;;9.76;71.95;101653.53;1769609;80;25760;-74
2021/06/03 03:40:44;;;;;;;15.55;11.25;;;;;;;9.77;71.63;101657.91;1737958;80;25911;-73
2021/06/03 03:43:12;;;;;;;14.63;9.98;;;;;;;9.86;71.70;101655.11;1686583;80;25970;-74
2021/06/03 03:45:39;;;;;;;13.83;9.40;;;;;;;9.95;71.96;101649.32;1763044;79;27693;-73
2021/06/03 03:48:07;;;;;;;15.35;8.95;;;;;;;10.06;72.17;101649.06;1768787;78;26201;-73
2021/06/03 03:50:37;;;;;;;10.00;8.35;;;;;;;10.13;72.46;101654.17;1692197;80;25879;-73
2021/06/03 03:53:06;;;;;;;13.50;8.73;;;;;;;10.16;72.05;101657.03;1713755;80;26267;-72
2021/06/03 03:55:35;;;;;;;10.43;7.90;;;;;;;10.20;72.32;101656.53;1770190;80;25482;-73
2021/06/03 03:58:03;;;;;;;11.60;8.55;;;;;;;10.27;72.19;101665.62;1737620;80;27459;-74
2021/06/03 04:00:34;;;;;;;12.78;8.48;;;;;;;10.35;72.22;101658.14;1771784;78;25401;-73
2021/06/03 04:03:05;;;;;;;12.15;9.40;;;;;;;10.41;72.14;101658.84;1690453;80;26550;-74
2021/06/03 04:05:33;;;;;;;13.83;9.45;;;;;;;10.51;72.37;101664.41;1769629;80;25744;-75
2021/06/03 04:08:03;;;;;;;13.38;9.25;;;;;;;10.61;72.00;101661.59;1765919;80;26380;-73
2021/06/03 04:10:32;;;;;;;11.75;8.83;;;;;;;10.71;71.99;101663.67;1734902;80;27388;-73
2021/06/03 04:12:59;;;;;;;15.05;9.73;;;;;;;10.80;72.10;101662.67;1747688;79;25826;-72
2021/06/03 04:15:28;;;;;;;12.45;8.60;;;;;;;10.88;72.54;101666.74;1770509;80;25826;-74
2021/06/03 04:17:57;;;;;;;14.30;8.35;;;;;;;10.94;73.00;101660.73;1783662;78;26524;-73
2021/06/03 04:20:25;;;;;;;15.53;9.83;;;;;;;11.00;72.73;101663.24;1738722;80;25845;-72
2021/06/03 04:22:54;;;;;;;12.35;8.78;;;;;;;11.02;72.61;101661.23;1727704;80;27566;-74
2021/06/03 04:25:25;;;;;;;12.53;9.35;;;;;;;11.06;72.72;101667.45;1725089;80;25949;-73
2021/06/03 04:27:54;;;;;;;14.73;9.80;;;;;;;11.08;72.43;101667.27;1770381;80;25837;-73
2021/06/03 04:30:25;;;;;;;14.23;9.93;;;;;;;11.12;72.23;101667.31;1738999;80;26622;-73
2021/06/03 04:32:52;;;;;;;15.88;9.05;;;;;;;11.20;72.22;101667.32;1771489;80;25548;-75
2021/06/03 04:35:21;;;;;;;15.30;9.13;;;;;;;11.28;72.65;101676.72;1731987;80;26873;-73
2021/06/03 04:37:49;;;;;;;12.20;8.78;;;;;;;11.36;72.60;101675.38;1736913;80;25815;-73
2021/06/03 04:40:20;;;;;;;11.78;8.43;;;;;;;11.43;72.30;101676.41;1680780;82;25734;-73
2021/06/03 04:42:47;;;;;;;11.63;8.35;;;;;;;11.49;72.59;101678.42;1685125;83;26663;-73
2021/06/03 04:45:15;;;;;;;14.25;8.98;;;;;;;11.53;72.57;101678.42;1742283;80;25757;-73
2021/06/03 04:47:46;;;;;;;12.70;8.60;;;;;;;11.59;72.47;101681.27;1740839;80;28148;-73
2021/06/03 04:50:15;;;;;;;16.10;8.60;;;;;;;11.67;72.06;101680.48;1740895;80;25566;-74
2021/06/03 04:52:43;;;;;;;12.85;7.72;;;;;;;11.73;72.36;101682.50;1772214;80;26022;-74
2021/06/03 04:55:16;;;;;;;11.18;7.95;;;;;;;11.79;72.05;101676.95;1772385;80;25547;-74
2021/06/03 04:57:44;;;;;;;11.33;7.85;;;;;;;11.85;71.77;101676.27;1756954;80;26513;-73
2021/06/03 05:00:15;;;;;;;13.98;8.83;;;;;;;11.89;71.56;101677.11;1757125;80;28223;-73
2021/06/03 05:02:43;;;;;;;10.95;8.25;;;;;;;11.95;71.42;101675.11;1767888;80;25806;-73
2021/06/03 05:05:12;;;;;;;15.53;7.55;;;;;;;12.04;71.42;101679.44;1743743;80;25804;-73
2021/06/03 05:07:39;;;;;;;12.05;8.60;;;;;;;12.13;71.10;101673.55;1705816;80;25850;-73
2021/06/03 05:10:08;;;;;;;11.40;8.25;;;;;;;12.22;70.78;101673.87;1744307;80;25810;-73
2021/06/03 05:12:35;;;;;;;12.10;8.65;;;;;;;12.31;70.89;101674.20;1775243;78;27502;-73
2021/06/03 05:15:05;;;;;;;11.03;8.03;;;;;;;12.42;70.79;101681.05;1774760;80;25981;-73
2021/06/03 05:17:33;;;;;;;15.03;8.13;;;;;;;12.51;70.83;101680.84;1722530;80;25854;-73
2021/06/03 05:20:01;;;;;;;13.03;7.62;;;;;;;12.60;70.85;101675.78;1728094;78;26035;-73
2021/06/03 05:22:28;;;;;;;11.45;7.62;;;;;;;12.66;71.12;101689.86;1757634;78;25868;-73
2021/06/03 05:24:55;;;;;;;13.98;8.50;;;;;;;12.74;70.94;101685.81;1799222;78;27444;-73
2021/06/03 05:27:22;;;;;;;15.65;7.65;;;;;;;12.81;70.76;101684.09;1728044;80;25851;-72
2021/06/03 05:29:49;;;;;;;11.83;7.58;;;;;;;12.88;70.28;101685.07;1754773;80;26412;-73
2021/06/03 05:32:16;;;;;;;13.18;7.62;;;;;;;12.95;70.33;101690.59;1770998;80;25833;-73
2021/06/03 05:34:43;;;;;;;12.07;8.18;;;;;;;13.02;70.27;101688.88;1721400;80;25864;-73
2021/06/03 05:37:10;;;;;;;13.43;8.15;;;;;;;13.10;70.52;101692.90;1734388;78;27061;-72
2021/06/03 05:39:37;;;;;;;13.45;8.43;;;;;;;13.20;70.81;101692.66;1737435;80;26636;-73
2021/06/03 05:42:05;;;;;;;14.87;7.78;;;;;;;13.34;71.18;101691.42;1719578;82;25885;-72
2021/06/03 05:44:32;;;;;;;12.13;7.42;;;;;;;13.47;70.98;101694.33;1703749;81;25887;-74
2021/06/03 05:46:59;;;;;;;13.62;8.48;;;;;;;13.58;71.00;101692.57;1665099;83;26849;-73
2021/06/03 05:49:28;;;;;;;9.88;7.35;;;;;;;13.70;70.57;101693.84;1712586;82;27494;-73
2021/06/03 05:51:55;;;;;;;12.43;7.10;;;;;;;13.80;70.38;101694.92;1718412;82;25850;-74
2021/06/03 05:54:22;;;;;;;10.60;7.72;;;;;;;13.91;71.12;101697.19;1687643;82;26472;-73
2021/06/03 05:56:49;;;;;;;9.25;7.45;;;;;;;14.02;70.80;101695.92;1690713;81;26207;-73
2021/06/03 05:59:16;;;;;;;10.82;6.95;;;;;;;14.12;70.54;101697.33;1665814;82;25868;-72
2021/06/03 06:01:43;;;;;;;9.65;6.87;;;;;;;14.20;69.84;101698.59;1715920;82;28162;-73
2021/06/03 06:06:40;;;;;;;10.30;7.05;;;;;;;14.35;69.55;101696.78;1657859;83;25843;-73
2021/06/03 06:09:10;;;;;;;9.80;6.85;;;;;;;14.45;69.59;101699.22;1647316;84;25810;-73
2021/06/03 06:11:39;;;;;;;12.82;7.15;;;;;;;14.54;69.07;101697.58;1696900;82;25817;-73
2021/06/03 06:14:07;;;;;;;10.28;6.35;;;;;;;14.63;68.77;101697.82;1704363;82;27388;-73
2021/06/03 06:16:37;;;;;;;8.73;6.17;;;;;;;14.74;68.48;101705.95;1649899;84;26178;-73
2021/06/03 06:19:07;;;;;;;10.10;6.87;;;;;;;14.83;67.76;101704.84;1652253;84;25763;-72
2021/06/03 06:21:36;;;;;;;8.80;5.93;;;;;;;14.93;67.21;101701.83;1697649;83;25881;-73
2021/06/03 06:24:05;;;;;;;8.43;5.87;;;;;;;15.11;66.08;101706.33;1663013;84;25927;-74
2021/06/03 06:26:33;;;;;;;10.53;6.55;;;;;;;15.26;65.28;101703.08;1646304;84;27597;-73
2021/06/03 06:29:00;;;;;;;8.18;6.97;;;;;;;15.40;65.12;101700.84;1646283;84;25803;-74
2021/06/03 06:31:27;;;;;;;11.40;6.70;;;;;;;15.52;64.53;101704.76;1695247;82;26611;-73
2021/06/03 06:33:55;;;;;;;10.80;6.40;;;;;;;15.59;64.53;101704.83;1703828;82;26703;-74
2021/06/03 06:36:24;;;;;;;13.40;6.53;;;;;;;15.63;63.93;101709.62;1625451;83;26311;-74
2021/06/03 06:38:50;;;;;;;9.88;5.85;;;;;;;15.67;63.97;101707.39;1683097;83;27080;-73
2021/06/03 06:41:17;;;;;;;8.60;6.33;;;;;;;15.74;63.61;101711.00;1711248;83;25391;-73
2021/06/03 06:43:45;;;;;;;8.50;6.50;;;;;;;15.77;63.13;101710.60;1653402;83;25903;-73
2021/06/03 06:46:12;;;;;;;9.28;6.15;;;;;;;15.81;63.11;101710.53;1646870;84;26343;-74
2021/06/03 06:48:39;;;;;;;9.75;5.92;;;;;;;15.83;62.73;101713.88;1663259;84;26015;-73
2021/06/03 06:51:06;;;;;;;8.78;6.25;;;;;;;15.87;62.74;101712.45;1712845;83;28277;-73
2021/06/03 06:53:33;;;;;;;9.90;6.37;;;;;;;16.03;63.26;101717.09;1689233;83;25854;-74
2021/06/03 06:56:00;;;;;;;8.33;5.70;;;;;;;16.15;63.16;101720.08;1662322;83;25787;-74
2021/06/03 06:58:28;;;;;;;9.33;6.15;;;;;;;16.23;63.13;101717.77;1657516;84;25921;-76
2021/06/03 07:00:56;;;;;;;7.50;5.65;;;;;;;16.35;63.02;101718.37;1711476;83;25920;-76
2021/06/03 07:03:23;;;;;;;9.20;6.50;;;;;;;16.54;63.32;101718.20;1687527;82;27040;-76
2021/06/03 07:05:50;;;;;;;7.33;5.62;;;;;;;16.72;63.29;101710.42;1718768;80;25881;-74
2021/06/03 07:08:17;;;;;;;13.78;6.08;;;;;;;16.88;63.41;101710.92;1710060;80;26583;-73
2021/06/03 07:10:44;;;;;;;7.92;5.53;;;;;;;17.01;62.92;101703.88;1769111;80;25973;-76
2021/06/03 07:13:11;;;;;;;6.08;5.20;;;;;;;17.16;62.79;101699.16;1740375;80;25846;-75
2021/06/03 07:15:39;;;;;;;7.35;5.08;;;;;;;17.25;61.78;101707.42;1725053;80;27402;-76
2021/06/03 07:18:06;;;;;;;7.45;5.12;;;;;;;17.39;60.52;101707.25;1711803;82;25870;-77
2021/06/03 07:20:34;;;;;;;10.58;5.30;;;;;;;17.54;59.99;101703.04;1749902;81;26446;-75
2021/06/03 07:23:05;;;;;;;8.00;4.70;;;;;;;17.68;59.06;101706.11;1698281;80;26296;-74
2021/06/03 07:25:34;;;;;;;;;;;;;;;17.80;58.74;101703.60;1721627;80;25520;-74
2021/06/03 07:28:01;;;;;;;8.98;4.67;;;;;;;17.89;57.81;101700.49;1767602;80;28313;-73
2021/06/03 07:30:29;;;;;;;6.12;4.40;;;;;;;18.04;58.66;101702.48;1765794;78;26542;-73
2021/06/03 07:32:57;;;;;;;5.97;4.00;;;;;;;18.20;57.86;101704.75;1714617;80;26143;-73
2021/06/03 07:35:27;;;;;;;6.70;4.92;;;;;;;18.34;56.72;101700.16;1739219;80;25728;-74
2021/06/03 07:37:54;;;;;;;10.57;4.93;;;;;;;18.46;56.95;101697.98;1783491;79;26444;-73
2021/06/03 07:40:25;;;;;;;7.83;4.45;;;;;;;18.62;57.04;101706.72;1772183;78;27513;-74
2021/06/03 07:42:53;;;;;;;7.58;5.12;;;;;;;18.74;56.97;101698.22;1739509;80;25943;-74
2021/06/03 07:45:23;;;;;;;8.25;4.95;;;;;;;18.86;56.57;101699.23;1740004;80;25772;-74
2021/06/03 07:47:52;;;;;;;10.82;5.15;;;;;;;18.96;56.69;101698.25;1766428;80;26635;-73
2021/06/03 07:50:20;;;;;;;5.17;4.03;;;;;;;19.08;57.01;101696.00;1774113;80;26416;-73
2021/06/03 07:52:47;;;;;;;5.00;4.35;;;;;;;19.25;56.28;101700.41;1758751;80;28410;-74
2021/06/03 07:55:16;;;;;;;7.55;4.28;;;;;;;19.37;56.22;101697.36;1721416;80;25785;-74
2021/06/03 07:57:47;;;;;;;6.70;4.28;;;;;;;19.50;54.82;101697.80;1766830;80;26107;-74
2021/06/03 08:00:17;;;;;;;;;;;;;;;19.59;54.58;101697.86;1774119;80;25839;-74
2021/06/03 08:02:45;;;;;;;5.62;3.37;;;;;;;19.67;53.77;101698.43;1736129;80;26653;-74
2021/06/03 08:05:15;;;;;;;6.15;3.75;;;;;;;19.72;52.95;101704.02;1769148;80;28189;-73
2021/06/03 08:07:42;;;;;;;8.30;3.90;;;;;;;19.84;53.06;101702.80;1769423;80;26502;-76
2021/06/03 08:10:14;;;;;;;5.05;3.83;;;;;;;19.92;52.41;101695.20;1741088;80;25464;-74
2021/06/03 08:12:41;;;;;;;6.70;3.85;;;;;;;20.04;52.73;101694.48;1734370;80;26012;-74
2021/06/03 08:15:12;;;;;;;6.92;4.37;;;;;;;20.19;52.37;101703.14;1770540;78;25979;-73
2021/06/03 08:17:40;;;;;;;7.03;3.67;;;;;;;20.32;51.91;101690.78;1775883;80;28052;-74
2021/06/03 08:20:18;;;;;;;4.33;3.17;;;;;;;20.42;51.50;101692.48;1727412;80;25758;-74
2021/06/03 08:22:46;;;;;;;10.63;4.00;;;;;;;20.51;51.26;101686.50;1717113;80;25813;-74
2021/06/03 08:25:15;;;;;;;7.42;3.20;;;;;;;20.57;50.09;101680.15;1764083;80;25778;-74
2021/06/03 08:27:42;;;;;;;7.75;3.02;;;;;;;20.62;49.89;101685.76;1768521;78;25829;-74
2021/06/03 08:30:12;;;;;;;5.87;2.67;;;;;;;20.72;48.04;101683.33;1747587;80;28171;-74
2021/06/03 08:32:45;;;;;;;3.83;2.80;;;;;;;20.82;47.22;101682.81;1717591;80;26040;-74
2021/06/03 08:35:15;;;;;;;11.63;3.50;;;;;;;20.95;47.13;101685.91;1767702;80;26527;-74
2021/06/03 08:37:48;;;;;;;3.27;2.45;;;;;;;21.04;46.42;101675.03;1778436;80;25593;-74
2021/06/03 08:40:19;;;;;;;7.53;2.58;;;;;;;21.15;45.60;101675.62;1769384;78;26656;-74
2021/06/03 08:42:52;;;;;;;4.55;2.47;;;;;;;21.21;45.74;101674.70;1682270;82;27992;-74
2021/06/03 08:45:21;;;;;;;4.28;2.42;;;;;;;21.24;44.73;101672.33;1728433;82;25986;-74
2021/06/03 08:47:48;;;;;;;3.98;2.42;;;;;;;21.28;44.43;101668.61;1707491;83;25308;-74
2021/06/03 08:50:16;;;;;;;3.67;2.40;;;;;;;21.28;44.51;101668.61;1687109;83;26115;-74
2021/06/03 08:52:43;;;;;;;2.60;1.80;;;;;;;21.28;44.39;101668.61;1711410;82;25661;-74
2021/06/03 08:56:14;;;;;;;5.97;3.15;;;;;;;21.27;44.27;101679.22;1719005;82;27576;-74
2021/06/03 08:57:43;;;;;;;7.87;3.20;;;;;;;21.26;42.60;101671.57;1717858;82;25891;-74
2021/06/03 09:00:12;;;;;;;3.92;2.00;;;;;;;21.34;42.39;101670.44;1674562;83;25844;-74
2021/06/03 09:02:39;;;;;;;4.67;2.37;;;;;;;21.39;41.85;101675.48;1732189;82;26429;-74
2021/06/03 09:05:07;;;;;;;4.10;1.82;;;;;;;21.40;41.84;101672.23;1702462;83;25752;-74
2021/06/03 09:07:38;;;;;;;2.50;2.10;;;;;;;21.41;41.47;101672.52;1712260;82;27454;-74
2021/06/03 09:10:33;;;;;;;3.08;1.75;;;;;;;21.39;40.88;101672.75;1669853;82;26531;-74
2021/06/03 09:13:19;;;;;;;2.55;1.75;;;;;;;21.38;40.76;101669.70;1675847;83;26104;-74
2021/06/03 09:15:54;;;;;;;2.10;1.27;;;;;;;21.37;40.42;101675.41;1712570;82;25743;-74
2021/06/03 09:18:38;;;;;;;2.47;1.57;;;;;;;21.35;38.93;101676.17;1689380;83;26068;-74
2021/06/03 09:21:23;;;;;;;2.35;1.77;;;;;;;21.34;37.77;101664.42;1668468;84;27486;-74
2021/06/03 09:23:58;;;;;;;3.60;1.40;;;;;;;;;;1669701;83;26379;-74
2021/06/03 09:26:29;;;;;;;4.75;1.55;;;;;;;21.55;37.61;101660.89;1697166;83;25329;-74
2021/06/03 09:28:59;;;;;;;6.33;1.50;;;;;;;21.57;38.28;101660.95;1697427;83;26251;-74
2021/06/03 09:31:29;;;;;;;1.95;1.75;;;;;;;21.58;38.45;101664.52;1682544;83;25448;-74
2021/06/03 09:34:15;;;;;;;8.58;1.62;;;;;;;21.54;37.96;101664.14;1662270;83;28220;-74
2021/06/03 09:36:51;;;;;;;5.65;2.10;;;;;;;21.55;38.55;101660.89;1719322;82;25951;-74
2021/06/03 09:39:23;;;;;;;2.65;1.72;;;;;;;21.55;37.79;101658.16;1737763;80;25733;-74
2021/06/03 09:42:14;;;;;;;2.58;2.05;;;;;;;21.55;37.50;101663.61;1734600;82;26579;-74
2021/06/03 09:44:55;;;;;;;2.10;1.87;;;;;;;21.69;39.09;101660.44;1706969;83;26122;-74
2021/06/03 09:47:38;;;;;;;2.30;2.10;;;;;;;21.95;39.61;101657.84;1732379;81;27580;-74
2021/06/03 09:50:09;;;;;;;5.92;2.27;;;;;;;22.17;39.62;101659.77;1686094;83;25928;-74
2021/06/03 09:52:37;;;;;;;;;;;;;;;22.31;37.78;101655.41;1702627;83;25886;-74
2021/06/03 09:55:11;;;;;;;3.17;1.72;;;;;;;22.37;38.49;101654.48;1728133;82;26225;-74
2021/06/03 09:57:43;;;;;;;2.37;1.90;;;;;;;22.54;39.34;101657.58;1708299;83;26551;-74
2021/06/03 10:00:18;;;;;;;4.92;2.40;;;;;;;22.71;38.10;101647.61;1670883;83;27454;-74
2021/06/03 10:02:46;;;;;;;3.37;2.55;;;;;;;22.91;39.43;101652.14;1661355;80;26754;-73
2021/06/03 10:05:22;;;;;;;4.05;2.25;;;;;;;23.06;38.41;101654.87;1736793;80;26711;-75
2021/06/03 10:08:02;;;;;;;5.62;2.30;;;;;;;23.07;37.55;101645.08;1739573;80;25775;-74
2021/06/03 10:10:32;;;;;;;2.62;2.15;;;;;;;23.11;36.89;101649.52;1712708;80;25786;-75
2021/06/03 10:13:06;;;;;;;1.92;1.72;;;;;;;23.17;35.36;101648.00;1686352;83;27519;-75
2021/06/03 10:15:39;;;;;;;3.12;2.60;;;;;;;23.22;35.83;101652.73;1754186;80;26555;-75
2021/06/03 10:18:15;;;;;;;3.45;2.17;;;;;;;23.29;37.08;101652.86;1715797;82;26088;-75
2021/06/03 10:20:49;;;;;;;2.98;1.90;;;;;;;23.43;36.79;101652.07;1723472;81;26223;-74
2021/06/03 10:23:23;;;;;;;8.43;2.10;;;;;;;23.57;36.66;101652.03;1690466;82;25965;-74
2021/06/03 10:25:57;;;;;;;3.67;2.15;;;;;;;23.71;36.92;101655.59;1756329;80;27534;-73
2021/06/03 10:28:24;;;;;;;4.72;2.27;;;;;;;23.75;36.21;101648.55;1752090;80;25751;-74
2021/06/03 10:30:57;;;;;;;3.80;1.92;;;;;;;23.82;36.54;101651.13;1687832;80;25953;-74
2021/06/03 10:33:27;;;;;;;2.35;2.15;;;;;;;23.80;35.35;101655.18;1724748;81;26599;-74
2021/06/03 10:35:58;;;;;;;4.60;1.85;;;;;;;23.78;35.12;101648.56;1709463;81;25912;-73
2021/06/03 10:38:26;;;;;;;3.22;2.00;;;;;;;23.75;35.04;101653.19;1701536;82;27189;-74
2021/06/03 10:41:03;;;;;;;3.58;2.72;;;;;;;23.81;36.03;101650.81;1707155;83;25844;-74
2021/06/03 10:43:36;;;;;;;2.65;2.15;;;;;;;23.99;36.13;101648.38;1685421;82;25877;-74
2021/06/03 10:46:04;;;;;;;5.47;2.08;;;;;;;24.17;34.79;101654.44;1719805;82;26379;-74
2021/06/03 10:48:31;;;;;;;4.58;2.10;;;;;;;24.14;34.99;101657.70;1691259;83;25814;-74
2021/06/03 10:51:02;;;;;;;2.45;2.00;;;;;;;24.15;36.01;101655.23;1695174;80;27591;-74
2021/06/03 10:53:31;;;;;;;5.55;2.25;;;;;;;24.25;34.92;101647.16;1693012;81;25914;-73
2021/06/03 10:56:12;;;;;;;2.37;1.98;;;;;;;24.44;35.12;101651.83;1740537;81;26626;-73
2021/06/03 10:58:43;;;;;;;2.67;2.10;;;;;;;24.54;35.25;101647.84;1735370;81;26410;-74
2021/06/03 11:01:17;;;;;;;2.58;1.87;;;;;;;24.56;34.66;101651.70;1715564;81;25951;-74
2021/06/03 11:03:49;;;;;;;2.02;1.77;;;;;;;24.60;34.77;101641.88;1659407;83;27476;-74
2021/06/03 11:06:20;;;;;;;3.08;2.10;;;;;;;24.63;34.68;101642.76;1719693;81;26734;-73
2021/06/03 11:09:05;;;;;;;9.65;2.35;;;;;;;24.42;33.46;101641.11;1673846;83;25376;-73
2021/06/03 11:11:37;;;;;;;3.52;2.02;;;;;;;24.21;33.16;101646.01;1664156;83;25812;-73
2021/06/03 11:14:10;;;;;;;3.65;2.35;;;;;;;24.06;34.44;101646.34;1672071;83;25809;-73
2021/06/03 11:16:42;;;;;;;5.33;2.00;;;;;;;24.11;34.44;101640.39;1756410;80;28293;-73
2021/06/03 11:19:12;;;;;;;2.25;2.05;;;;;;;24.27;34.43;101637.34;1747747;80;26171;-74
2021/06/03 11:21:47;;;;;;;4.22;1.98;;;;;;;24.33;35.24;101632.22;1695756;83;26027;-74
2021/06/03 11:24:38;;;;;;;5.70;2.10;;;;;;;24.40;35.02;101635.62;1722329;82;25814;-73
2021/06/03 11:27:09;;;;;;;2.42;1.90;;;;;;;24.45;35.16;101635.13;1723629;82;25863;-73
2021/06/03 11:29:50;;;;;;;5.75;2.62;;;;;;;24.37;33.81;101630.63;1781800;80;29129;-74
2021/06/03 11:32:25;;;;;;;3.77;2.15;;;;;;;24.45;33.90;101623.34;1746004;80;26010;-73
2021/06/03 11:34:56;;;;;;;2.90;1.80;;;;;;;24.55;33.24;101618.55;1710763;81;25858;-73
2021/06/03 11:37:41;;;;;;;4.50;2.12;;;;;;;24.66;34.37;101625.83;1696782;83;26639;-74
2021/06/03 11:40:16;;;;;;;4.95;1.95;;;;;;;24.79;33.83;101625.44;1680343;83;25936;-73
2021/06/03 11:42:50;;;;;;;3.47;1.95;;;;;;;25.01;34.15;101622.98;1738825;81;27600;-74